Time;durP1;ratioP1;P1;durP2;ratioP2;P2;SDS_P1;SDS_P2;PMS_P1;PMS_P2;Temp;Humidity;BMP_temperature;BMP_pressure;BME280_temperature;BME280_humidity;BME280_pressure;Samples;Min_cycle;Max_cycle;Signal;HPM_P1;HPM_P2
2022/08/01 00:00:56;;;;;;;;;6.67;5.00;;;30.67;97251.81;;;;118981;1190;25314;-64
2022/08/01 00:03:24;;;;;;;;;4.75;4.00;;;30.68;97253.64;;;;119014;1189;26016;-65
2022/08/01 00:05:52;;;;;;;;;7.25;5.00;;;30.69;97250.47;;;;119076;1187;25718;-64
2022/08/01 00:08:19;;;;;;;;;5.75;4.00;;;30.70;97253.76;;;;119079;1188;25108;-62
2022/08/01 00:10:47;;;;;;;;;3.50;3.50;;;30.70;97250.92;;;;119064;1187;25709;-64
2022/08/01 00:13:15;;;;;;;;;5.25;4.75;;;30.70;97250.16;;;;119062;1189;25622;-66
2022/08/01 00:15:43;;;;;;;;;8.25;7.00;;;30.72;97252.63;;;;119268;1187;25726;-64
2022/08/01 00:18:21;;;;;;;;;5.25;4.00;;;30.76;97255.95;;;;119242;1186;24987;-64
2022/08/01 00:20:49;;;;;;;;;3.75;3.00;;;30.76;97253.80;;;;119046;1186;24782;-64
2022/08/01 00:23:17;;;;;;;;;5.50;5.00;;;30.77;97256.25;;;;118943;1190;25638;-64
2022/08/01 00:25:44;;;;;;;;;5.75;4.00;;;30.77;97257.14;;;;118940;1190;25428;-65
2022/08/01 00:28:13;;;;;;;;;6.25;4.50;;;30.77;97255.05;;;;118999;1190;25127;-65
2022/08/01 00:30:41;;;;;;;;;7.25;6.00;;;30.73;97256.71;;;;119017;1189;24884;-65
2022/08/01 00:33:09;;;;;;;;;4.00;3.00;;;30.73;97254.14;;;;118961;1190;26299;-65
2022/08/01 00:35:36;;;;;;;;;4.25;4.25;;;30.73;97254.25;;;;119058;1187;25454;-65
2022/08/01 00:38:04;;;;;;;;;5.00;5.00;;;30.74;97252.13;;;;119068;1189;24957;-65
2022/08/01 00:40:32;;;;;;;;;5.00;5.00;;;30.73;97251.66;;;;119083;1187;26065;-65
2022/08/01 00:43:00;;;;;;;;;5.25;4.75;;;30.72;97247.95;;;;119109;1187;25869;-65
2022/08/01 00:45:28;;;;;;;;;4.75;4.75;;;30.71;97246.54;;;;119145;1188;24916;-64
2022/08/01 00:47:55;;;;;;;;;6.00;5.00;;;30.72;97246.48;;;;119139;1187;25984;-64
2022/08/01 00:50:23;;;;;;;;;6.00;6.00;;;30.71;97246.13;;;;119159;1187;25487;-64
2022/08/01 00:52:51;;;;;;;;;6.00;5.00;;;30.71;97246.59;;;;118919;1187;24721;-64
2022/08/01 00:55:20;;;;;;;;;4.75;4.50;;;30.70;97246.66;;;;119122;1186;25949;-64
2022/08/01 00:57:48;;;;;;;;;6.75;5.00;;;30.71;97248.73;;;;118990;1187;24943;-65
2022/08/01 01:00:34;;;;;;;;;5.00;4.00;;;30.76;97250.64;;;;119047;1188;25092;-65
2022/08/01 01:03:22;;;;;;;;;6.00;4.75;;;30.83;97250.48;;;;119153;1187;25651;-63
2022/08/01 01:06:13;;;;;;;;;4.00;4.00;;;30.89;97247.91;;;;119150;1187;26388;-62
2022/08/01 01:09:26;;;;;;;;;3.50;3.50;;;30.88;97249.00;;;;119157;1188;25532;-63
2022/08/01 01:12:02;;;;;;;;;4.50;4.50;;;30.92;97249.08;;;;118535;1192;24751;-63
2022/08/01 01:14:46;;;;;;;;;4.33;4.33;;;30.89;97251.06;;;;118540;1192;25293;-63
2022/08/01 01:17:17;;;;;;;;;3.25;3.25;;;30.85;97251.81;;;;118794;1187;24798;-64
2022/08/01 01:20:09;;;;;;;;;7.00;5.67;;;30.89;97252.27;;;;118930;1190;25083;-63
2022/08/01 01:22:52;;;;;;;;;4.25;4.25;;;30.89;97257.52;;;;119044;1189;25660;-64
2022/08/01 01:25:38;;;;;;;;;4.00;3.00;;;30.85;97259.30;;;;119164;1187;24949;-63
2022/08/01 01:28:26;;;;;;;;;3.00;3.00;;;30.81;97261.17;;;;119174;1188;25024;-64
2022/08/01 01:30:55;;;;;;;;;5.50;4.00;;;30.82;97261.66;;;;119000;1190;25526;-64
2022/08/01 01:33:28;;;;;;;;;5.00;5.00;;;30.81;97264.90;;;;118993;1189;25985;-64
2022/08/01 01:36:01;;;;;;;;;6.00;6.00;;;30.81;97266.73;;;;118996;1190;25865;-64
2022/08/01 01:38:34;;;;;;;;;2.75;2.75;;;30.80;97263.15;;;;118994;1189;25597;-64
2022/08/01 01:41:02;;;;;;;;;6.50;4.50;;;30.81;97266.04;;;;119162;1188;25358;-64
2022/08/01 01:43:32;;;;;;;;;5.25;4.25;;;30.79;97266.27;;;;118995;1189;26069;-64
2022/08/01 01:46:02;;;;;;;;;4.00;4.00;;;30.78;97263.83;;;;119030;1188;25084;-64
2022/08/01 01:48:33;;;;;;;;;4.50;4.50;;;30.78;97258.17;;;;118940;1190;25162;-64
2022/08/01 01:51:01;;;;;;;;;5.25;5.25;;;30.78;97258.57;;;;118966;1190;25156;-64
2022/08/01 01:53:32;;;;;;;;;4.00;4.00;;;30.78;97258.34;;;;118961;1190;25907;-64
2022/08/01 01:56:01;;;;;;;;;5.50;5.00;;;30.77;97258.61;;;;118974;1190;24853;-64
2022/08/01 01:58:33;;;;;;;;;4.25;4.25;;;30.77;97261.80;;;;118963;1189;25515;-64
2022/08/01 02:01:02;;;;;;;;;4.50;4.50;;;30.80;97258.54;;;;118996;1189;24926;-64
2022/08/01 02:03:31;;;;;;;;;3.25;3.25;;;30.80;97258.83;;;;119128;1188;24824;-64
2022/08/01 02:05:59;;;;;;;;;4.25;4.25;;;30.79;97258.26;;;;119154;1187;25921;-64
2022/08/01 02:08:29;;;;;;;;;5.00;4.00;;;30.78;97258.15;;;;119003;1189;25741;-64
2022/08/01 02:13:54;;;;;;;;;3.25;3.25;;;30.80;97258.86;;;;119149;1188;25442;-64
2022/08/01 02:16:25;;;;;;;;;4.25;3.50;;;30.79;97258.54;;;;119147;1188;26220;-65
2022/08/01 02:18:53;;;;;;;;;4.00;4.00;;;30.79;97260.02;;;;119133;1187;25780;-65
2022/08/01 02:21:30;;;;;;;;;6.00;4.00;;;30.78;97260.16;;;;119094;1188;26258;-64
2022/08/01 02:24:08;;;;;;;;;4.00;4.00;;;30.78;97260.69;;;;119109;1188;25736;-65
2022/08/01 02:26:44;;;;;;;;;4.25;4.25;;;30.80;97260.26;;;;119091;1187;25710;-64
2022/08/01 02:29:17;;;;;;;;;5.00;5.00;;;30.81;97260.64;;;;119090;1187;24838;-64
2022/08/01 02:31:46;;;;;;;;;5.00;5.00;;;30.81;97263.21;;;;118980;1189;24866;-64
2022/08/01 02:34:17;;;;;;;;;3.50;3.50;;;30.80;97262.02;;;;119008;1188;25170;-64
2022/08/01 02:36:46;;;;;;;;;4.00;4.00;;;30.78;97257.31;;;;119110;1187;25582;-64
2022/08/01 02:39:21;;;;;;;;;4.00;4.00;;;30.76;97255.42;;;;118976;1189;25891;-64
2022/08/01 02:41:58;;;;;;;;;4.00;4.00;;;30.77;97257.38;;;;118997;1189;26146;-64
2022/08/01 02:44:33;;;;;;;;;4.75;4.75;;;30.80;97256.35;;;;119107;1188;24886;-65
2022/08/01 02:47:02;;;;;;;;;5.50;3.75;;;30.80;97257.46;;;;119123;1188;24761;-65
2022/08/01 02:49:48;;;;;;;;;4.50;4.50;;;30.79;97256.16;;;;118992;1190;26405;-65
2022/08/01 02:52:22;;;;;;;;;6.25;5.00;;;30.84;97257.02;;;;118985;1189;25658;-65
2022/08/01 02:55:07;;;;;;;;;5.50;4.25;;;30.84;97256.02;;;;119090;1188;26035;-65
2022/08/01 02:57:37;;;;;;;;;4.00;4.00;;;30.84;97256.73;;;;118956;1189;24815;-65
2022/08/01 03:00:19;;;;;;;;;4.00;3.00;;;30.87;97254.73;;;;118979;1189;25622;-65
2022/08/01 03:02:54;;;;;;;;;7.00;5.00;;;30.85;97255.61;;;;118979;1190;25042;-65
2022/08/01 03:05:24;;;;;;;;;4.25;4.25;;;30.82;97257.10;;;;118939;1190;24872;-64
2022/08/01 03:07:55;;;;;;;;;3.75;3.75;;;30.81;97255.27;;;;118993;1190;25686;-64
2022/08/01 03:10:31;;;;;;;;;5.00;5.00;;;30.81;97253.85;;;;118976;1189;25474;-64
2022/08/01 03:13:00;;;;;;;;;5.50;4.50;;;30.80;97255.54;;;;118991;1189;25119;-64
2022/08/01 03:15:31;;;;;;;;;6.00;4.00;;;30.79;97258.86;;;;118936;1189;25448;-65
2022/08/01 03:18:00;;;;;;;;;4.00;3.33;;;30.80;97258.95;;;;118972;1190;25670;-65
2022/08/01 03:20:30;;;;;;;;;4.00;3.00;;;30.78;97258.84;;;;118988;1189;24848;-65
2022/08/01 03:23:00;;;;;;;;;4.25;4.25;;;30.76;97264.12;;;;118883;1189;24762;-65
2022/08/01 03:25:28;;;;;;;;;3.50;3.50;;;30.75;97265.81;;;;118988;1189;26355;-63
2022/08/01 03:27:59;;;;;;;;;4.00;4.00;;;30.75;97266.39;;;;118948;1190;25081;-62
2022/08/01 03:30:27;;;;;;;;;3.50;3.50;;;30.75;97265.78;;;;118910;1190;25890;-64
2022/08/01 03:32:55;;;;;;;;;4.25;4.25;;;30.73;97264.36;;;;118901;1190;24758;-63
2022/08/01 03:35:27;;;;;;;;;4.00;3.00;;;30.72;97262.64;;;;118936;1190;26458;-63
2022/08/01 03:37:56;;;;;;;;;6.00;6.00;;;30.72;97267.25;;;;119028;1189;25595;-64
2022/08/01 03:40:52;;;;;;;;;4.75;4.00;;;30.81;97269.80;;;;118905;1191;25197;-64
2022/08/01 03:43:32;;;;;;;;;6.00;3.00;;;30.84;97268.65;;;;118973;1190;25927;-62
2022/08/01 03:46:07;;;;;;;;;3.75;3.75;;;30.80;97266.85;;;;118958;1190;25298;-65
2022/08/01 03:48:38;;;;;;;;;4.25;4.00;;;30.79;97270.36;;;;119045;1186;25208;-65
2022/08/01 03:51:07;;;;;;;;;4.75;4.00;;;30.78;97271.93;;;;119048;1187;25282;-65
2022/08/01 03:53:36;;;;;;;;;4.00;4.00;;;30.76;97272.09;;;;119061;1188;25106;-64
2022/08/01 03:56:10;;;;;;;;;3.25;3.25;;;30.74;97274.48;;;;119017;1188;24761;-66
2022/08/01 03:58:39;;;;;;;;;5.75;5.00;;;30.71;97276.24;;;;119018;1187;25994;-64
2022/08/01 04:01:09;;;;;;;;;4.00;3.75;;;30.68;97277.41;;;;118915;1189;25523;-64
2022/08/01 04:03:43;;;;;;;;;5.50;2.00;;;30.69;97279.59;;;;118992;1188;24888;-64
2022/08/01 04:06:13;;;;;;;;;5.00;5.00;;;30.68;97278.38;;;;119080;1188;25674;-63
2022/08/01 04:08:41;;;;;;;;;3.75;3.75;;;30.64;97280.06;;;;119117;1188;26119;-62
2022/08/01 04:11:10;;;;;;;;;5.00;5.00;;;30.69;97278.85;;;;119134;1189;25630;-62
2022/08/01 04:13:37;;;;;;;;;5.25;5.25;;;30.67;97282.66;;;;118955;1190;25833;-64
2022/08/01 04:16:05;;;;;;;;;5.25;5.00;;;30.67;97283.96;;;;119033;1188;25545;-63
2022/08/01 04:18:34;;;;;;;;;5.00;4.00;;;30.69;97284.89;;;;119278;1188;25643;-65
2022/08/01 04:21:01;;;;;;;;;6.75;4.75;;;30.88;97285.81;;;;119370;1188;26964;-65
2022/08/01 04:23:31;;;;;;;;;5.00;4.25;;;31.04;97286.70;;;;119315;1188;25472;-65
2022/08/01 04:25:59;;;;;;;;;5.50;3.00;;;31.18;97288.61;;;;119308;1188;26286;-65
2022/08/01 04:28:28;;;;;;;;;3.00;3.00;;;31.14;97292.40;;;;119072;1190;25712;-63
2022/08/01 04:30:57;;;;;;;;;3.50;3.50;;;30.87;97292.65;;;;119219;1188;25704;-63
2022/08/01 04:33:30;;;;;;;;;6.00;3.50;;;30.66;97297.48;;;;119034;1188;26354;-64
2022/08/01 04:35:59;;;;;;;;;3.00;3.00;;;30.29;97298.06;;;;118950;1189;25656;-64
2022/08/01 04:38:36;;;;;;;;;6.00;3.00;;;30.26;97297.67;;;;118969;1189;25288;-63
2022/08/01 04:41:06;;;;;;;;;2.00;2.00;;;30.24;97298.06;;;;119003;1189;25570;-63
2022/08/01 04:43:37;;;;;;;;;2.00;2.00;;;30.00;97304.05;;;;119009;1189;25969;-63
2022/08/01 04:46:08;;;;;;;;;2.50;2.50;;;29.79;97304.39;;;;119034;1189;25878;-64
2022/08/01 04:48:38;;;;;;;;;2.00;2.00;;;29.55;97308.93;;;;119013;1189;24785;-63
2022/08/01 04:51:17;;;;;;;;;3.00;3.00;;;29.46;97309.21;;;;119140;1188;26057;-64
2022/08/01 04:53:47;;;;;;;;;2.00;2.00;;;29.52;97312.97;;;;119148;1188;25373;-64
2022/08/01 04:56:15;;;;;;;;;2.00;2.00;;;29.58;97310.67;;;;119126;1187;24887;-63
2022/08/01 04:58:43;;;;;;;;;2.00;2.00;;;29.61;97311.19;;;;119157;1187;25233;-63
2022/08/01 05:01:12;;;;;;;;;3.00;3.00;;;29.60;97311.71;;;;119109;1189;26507;-64
2022/08/01 05:03:40;;;;;;;;;2.50;2.00;;;29.69;97307.30;;;;119130;1187;25615;-63
2022/08/01 05:06:07;;;;;;;;;2.00;2.00;;;29.74;97303.52;;;;119147;1188;25485;-63
2022/08/01 05:08:35;;;;;;;;;3.00;3.00;;;29.76;97304.35;;;;119074;1188;25065;-64
2022/08/01 05:11:04;;;;;;;;;4.75;3.00;;;29.81;97303.52;;;;118999;1190;25265;-70
2022/08/01 05:13:32;;;;;;;;;3.00;3.00;;;29.84;97304.96;;;;119081;1188;25485;-63
2022/08/01 05:16:00;;;;;;;;;7.00;5.00;;;29.89;97307.02;;;;118919;1189;25334;-64
2022/08/01 05:18:27;;;;;;;;;8.67;5.67;;;29.92;97308.67;;;;119000;1190;25423;-71
2022/08/01 05:20:57;;;;;;;;;13.75;6.00;;;29.89;97311.61;;;;119227;1186;25188;-67
2022/08/01 05:23:25;;;;;;;;;14.50;9.25;;;30.03;97312.04;;;;119164;1188;25708;-78
2022/08/01 05:26:11;;;;;;;;;20.75;13.00;;;30.17;97315.43;;;;119077;1188;25044;-67
2022/08/01 05:28:42;;;;;;;;;21.75;16.25;;;30.23;97317.80;;;;118990;1189;25560;-67
2022/08/01 05:31:11;;;;;;;;;15.25;12.25;;;30.20;97323.33;;;;119184;1187;25330;-66
2022/08/01 05:33:39;;;;;;;;;17.50;12.75;;;30.16;97325.47;;;;118954;1190;25023;-66
2022/08/01 05:36:06;;;;;;;;;20.25;16.50;;;30.09;97318.45;;;;119192;1187;25047;-66
2022/08/01 05:38:34;;;;;;;;;19.50;11.25;;;30.04;97318.38;;;;119182;1188;25733;-65
2022/08/01 05:41:03;;;;;;;;;17.75;15.25;;;30.03;97321.02;;;;119193;1187;25316;-65
2022/08/01 05:43:31;;;;;;;;;16.00;9.50;;;30.03;97321.39;;;;119205;1188;24861;-66
2022/08/01 05:45:59;;;;;;;;;12.25;8.00;;;30.02;97323.98;;;;118961;1189;25366;-66
2022/08/01 05:48:27;;;;;;;;;12.75;11.00;;;29.99;97326.81;;;;119205;1188;25240;-66
2022/08/01 05:50:55;;;;;;;;;9.50;8.25;;;29.97;97328.62;;;;119177;1188;24765;-65
2022/08/01 05:53:25;;;;;;;;;7.00;5.33;;;29.98;97326.89;;;;119151;1187;26008;-67
2022/08/01 05:55:53;;;;;;;;;11.25;8.00;;;29.93;97329.96;;;;119213;1187;25226;-66
2022/08/01 05:58:22;;;;;;;;;8.75;7.25;;;29.95;97325.02;;;;119217;1187;25342;-66
2022/08/01 06:00:50;;;;;;;;;11.00;7.00;;;29.97;97331.35;;;;119189;1187;25890;-66
2022/08/01 06:03:18;;;;;;;;;8.75;5.75;;;29.97;97336.20;;;;119186;1187;25353;-71
2022/08/01 06:05:46;;;;;;;;;9.50;5.00;;;29.98;97336.27;;;;119170;1187;25429;-66
2022/08/01 06:08:14;;;;;;;;;12.00;8.25;;;30.01;97337.29;;;;119154;1187;25052;-65
2022/08/01 06:10:42;;;;;;;;;9.67;7.67;;;29.99;97333.64;;;;119011;1189;25510;-66
2022/08/01 06:13:10;;;;;;;;;8.25;4.75;;;30.05;97340.17;;;;119185;1187;25974;-65
2022/08/01 06:15:38;;;;;;;;;7.75;4.75;;;30.08;97343.07;;;;119166;1188;24978;-65
2022/08/01 06:18:06;;;;;;;;;4.00;4.00;;;30.05;97340.96;;;;119166;1188;25566;-65
2022/08/01 06:20:34;;;;;;;;;5.75;4.75;;;30.04;97340.75;;;;119159;1188;25211;-66
2022/08/01 06:23:02;;;;;;;;;6.25;5.00;;;30.02;97342.90;;;;119204;1187;25223;-70
2022/08/01 06:25:53;;;;;;;;;3.25;3.00;;;30.12;97347.67;;;;119030;1187;24996;-72
2022/08/01 06:28:22;;;;;;;;;5.50;4.50;;;30.03;97351.42;;;;119156;1187;25232;-72
2022/08/01 06:30:50;;;;;;;;;4.00;4.00;;;29.60;97353.83;;;;119012;1187;25243;-71
2022/08/01 06:33:18;;;;;;;;;4.50;3.00;;;29.43;97355.77;;;;119179;1189;25373;-69
2022/08/01 06:35:45;;;;;;;;;2.50;2.50;;;29.24;97354.61;;;;119139;1186;25605;-70
2022/08/01 06:38:13;;;;;;;;;3.33;2.33;;;29.07;97354.63;;;;118904;1190;25260;-70
2022/08/01 06:40:41;;;;;;;;;2.75;2.75;;;28.89;97352.81;;;;118963;1188;25205;-70
2022/08/01 06:43:11;;;;;;;;;4.00;3.00;;;28.76;97355.02;;;;119106;1188;26012;-70
2022/08/01 06:45:40;;;;;;;;;3.00;3.00;;;28.63;97355.36;;;;119149;1187;25819;-70
2022/08/01 06:48:08;;;;;;;;;7.67;4.00;;;28.51;97356.83;;;;119167;1187;26169;-67
2022/08/01 06:50:36;;;;;;;;;2.50;2.50;;;28.46;97352.20;;;;119151;1188;25638;-72
2022/08/01 06:53:04;;;;;;;;;6.67;4.00;;;28.57;97348.35;;;;119130;1188;25340;-70
2022/08/01 06:55:32;;;;;;;;;5.75;4.00;;;28.72;97343.30;;;;118966;1188;24966;-71
2022/08/01 06:58:00;;;;;;;;;4.25;2.50;;;28.85;97346.80;;;;119000;1188;25906;-70
2022/08/01 07:00:28;;;;;;;;;5.00;3.50;;;28.96;97350.75;;;;119134;1187;25123;-72
2022/08/01 07:02:59;;;;;;;;;6.25;4.75;;;29.08;97352.55;;;;118988;1189;25805;-75
2022/08/01 07:05:30;;;;;;;;;4.00;4.00;;;29.21;97351.22;;;;119142;1187;25319;-76
2022/08/01 07:08:04;;;;;;;;;4.25;2.00;;;29.31;97352.67;;;;119001;1188;25023;-66
2022/08/01 07:10:32;;;;;;;;;4.50;4.50;;;29.48;97353.63;;;;119136;1188;25301;-68
2022/08/01 07:13:00;;;;;;;;;4.50;3.75;;;29.49;97353.69;;;;119165;1187;24936;-76
2022/08/01 07:15:28;;;;;;;;;5.00;4.75;;;29.51;97356.31;;;;119128;1187;26271;-75
2022/08/01 07:17:56;;;;;;;;;5.00;5.00;;;29.55;97356.63;;;;119102;1187;25777;-75
2022/08/01 07:20:24;;;;;;;;;3.50;3.50;;;29.61;97353.09;;;;119136;1188;25538;-72
2022/08/01 07:22:53;;;;;;;;;4.25;3.00;;;29.68;97355.66;;;;118989;1188;25169;-74
2022/08/01 07:25:23;;;;;;;;;4.00;4.00;;;29.74;97359.98;;;;119161;1188;24804;-72
2022/08/01 07:27:51;;;;;;;;;3.50;2.50;;;29.82;97359.11;;;;119167;1187;25127;-78
2022/08/01 07:30:19;;;;;;;;;4.00;4.00;;;29.96;97361.45;;;;119123;1187;25485;-74
2022/08/01 07:32:47;;;;;;;;;2.75;2.75;;;29.99;97362.63;;;;118846;1190;25712;-69
2022/08/01 07:35:15;;;;;;;;;4.50;3.00;;;30.03;97359.77;;;;119142;1187;24997;-68
2022/08/01 07:37:43;;;;;;;;;3.00;2.75;;;29.96;97364.50;;;;119138;1188;25252;-68
2022/08/01 07:40:17;;;;;;;;;6.50;3.50;;;29.87;97368.27;;;;118999;1188;25129;-73
2022/08/01 07:42:46;;;;;;;;;5.50;4.25;;;29.91;97368.00;;;;119580;1188;25255;-69
2022/08/01 07:45:15;;;;;;;;;4.00;4.00;;;30.25;97373.13;;;;119288;1187;25404;-70
2022/08/01 07:47:43;;;;;;;;;4.50;4.00;;;30.34;97374.51;;;;119200;1186;26389;-70
2022/08/01 07:50:12;;;;;;;;;3.00;3.00;;;30.18;97370.55;;;;118936;1188;25367;-73
2022/08/01 07:52:40;;;;;;;;;3.67;3.00;;;30.11;97378.29;;;;119005;1188;25269;-71
2022/08/01 07:55:10;;;;;;;;;5.00;4.50;;;30.08;97376.30;;;;119244;1187;25586;-71
2022/08/01 07:57:38;;;;;;;;;5.00;4.67;;;29.99;97384.73;;;;119251;1188;25625;-71
2022/08/01 08:00:08;;;;;;;;;8.25;4.25;;;29.91;97384.71;;;;119149;1188;25070;-72
2022/08/01 08:02:35;;;;;;;;;4.50;4.00;;;29.99;97386.95;;;;119505;1188;26139;-71
2022/08/01 08:05:04;;;;;;;;;3.00;3.00;;;30.47;97386.72;;;;119769;1186;24872;-72
2022/08/01 08:07:33;;;;;;;;;3.75;3.75;;;30.85;97390.23;;;;119762;1188;25367;-72
2022/08/01 08:10:00;;;;;;;;;4.50;3.50;;;31.14;97398.46;;;;119748;1188;25984;-72
2022/08/01 08:12:28;;;;;;;;;4.00;4.00;;;31.33;97395.70;;;;119721;1188;25745;-72
2022/08/01 08:14:58;;;;;;;;;2.50;2.50;;;31.49;97392.19;;;;119373;1186;24833;-72
2022/08/01 08:17:27;;;;;;;;;2.75;2.75;;;31.26;97391.37;;;;119303;1187;26108;-73
2022/08/01 08:20:04;;;;;;;;;2.00;2.00;;;30.88;97388.70;;;;119289;1188;25751;-75
2022/08/01 08:22:37;;;;;;;;;4.00;3.00;;;30.61;97384.29;;;;119277;1186;25576;-73
2022/08/01 08:25:06;;;;;;;;;3.75;3.50;;;30.42;97384.59;;;;119294;1188;25292;-73
2022/08/01 08:27:36;;;;;;;;;3.25;3.25;;;30.28;97387.24;;;;119296;1186;25102;-72
2022/08/01 08:30:07;;;;;;;;;3.50;3.25;;;30.18;97389.28;;;;119305;1187;25517;-73
2022/08/01 08:32:36;;;;;;;;;3.50;3.50;;;30.10;97388.48;;;;119139;1187;25075;-72
2022/08/01 08:35:05;;;;;;;;;3.50;3.50;;;30.04;97387.88;;;;119313;1188;25307;-73
2022/08/01 08:37:35;;;;;;;;;4.00;3.00;;;30.00;97391.28;;;;119306;1187;25530;-74
2022/08/01 08:40:07;;;;;;;;;3.00;2.00;;;29.96;97395.78;;;;119290;1187;25675;-72
2022/08/01 08:42:34;;;;;;;;;1.00;1.00;;;29.94;97399.06;;;;119303;1188;24903;-73
2022/08/01 08:45:02;;;;;;;;;3.00;2.25;;;29.90;97403.76;;;;119073;1188;25680;-73
2022/08/01 08:47:33;;;;;;;;;4.00;4.00;;;29.87;97401.64;;;;119292;1188;25095;-73
2022/08/01 08:50:02;;;;;;;;;2.00;2.00;;;29.86;97400.16;;;;119305;1186;25115;-72
2022/08/01 08:52:30;;;;;;;;;4.00;4.00;;;29.86;97403.27;;;;119076;1189;26325;-72
2022/08/01 08:54:58;;;;;;;;;1.50;1.50;;;29.84;97404.02;;;;119067;1188;26101;-72
2022/08/01 08:57:26;;;;;;;;;2.25;1.75;;;29.82;97401.53;;;;119281;1187;25856;-72
2022/08/01 08:59:55;;;;;;;;;4.50;4.00;;;29.82;97401.49;;;;119325;1186;25372;-72
2022/08/01 09:02:23;;;;;;;;;4.00;4.00;;;29.81;97399.96;;;;119093;1189;24844;-71
2022/08/01 09:04:51;;;;;;;;;3.50;3.50;;;29.79;97397.05;;;;119285;1187;25205;-72
2022/08/01 09:07:19;;;;;;;;;4.00;3.00;;;29.79;97392.17;;;;119038;1188;24931;-71
2022/08/01 09:09:48;;;;;;;;;3.25;3.00;;;29.79;97391.95;;;;119284;1188;25469;-72
2022/08/01 09:12:19;;;;;;;;;2.00;2.00;;;29.79;97393.73;;;;119027;1190;25455;-72
2022/08/01 09:14:49;;;;;;;;;3.50;3.50;;;29.80;97391.83;;;;119044;1190;25070;-72
2022/08/01 09:17:18;;;;;;;;;5.50;2.75;;;29.81;97393.55;;;;119263;1188;26066;-69
2022/08/01 09:19:51;;;;;;;;;2.75;2.75;;;29.86;97396.11;;;;119114;1188;25491;-69
2022/08/01 09:22:23;;;;;;;;;3.00;3.00;;;29.95;97388.70;;;;119203;1186;25365;-70
2022/08/01 09:25:02;;;;;;;;;4.00;3.00;;;29.99;97387.26;;;;119208;1186;25229;-69
2022/08/01 09:30:12;;;;;;;;;4.00;4.00;;;29.79;97396.90;;;;117502;1206;23281;-71
2022/08/01 09:33:01;;;;;;;;;5.00;3.00;;;30.12;97401.92;;;;118552;1192;25010;-75
2022/08/01 09:35:54;;;;;;;;;3.75;3.75;;;30.36;97397.46;;;;118548;1193;24701;-74
2022/08/01 09:38:24;;;;;;;;;2.67;2.67;;;30.42;97405.10;;;;118662;1192;25500;-75
2022/08/01 09:40:58;;;;;;;;;3.25;3.25;;;30.35;97403.42;;;;119020;1189;25526;-73
2022/08/01 09:43:31;;;;;;;;;3.00;3.00;;;29.98;97409.20;;;;118944;1190;25561;-75
2022/08/01 11:01:59;;;;;;;;;3.00;3.00;;;27.69;97384.38;;;;117561;1206;23274;-63
2022/08/01 11:05:05;;;;;;;;;2.25;2.25;;;28.15;97384.77;;;;118527;1193;26690;-65
2022/08/01 11:07:45;;;;;;;;;3.25;3.25;;;28.67;97385.05;;;;118580;1192;25237;-63
2022/08/01 11:10:16;;;;;;;;;3.00;3.00;;;29.02;97379.57;;;;118506;1193;25240;-63
2022/08/01 11:12:44;;;;;;;;;3.00;3.00;;;29.29;97380.54;;;;118617;1193;25693;-63
2022/08/01 11:15:11;;;;;;;;;3.00;2.75;;;29.45;97381.28;;;;118581;1193;25241;-63
2022/08/01 11:17:48;;;;;;;;;2.75;2.75;;;29.60;97384.45;;;;118606;1192;25143;-71
2022/08/01 11:20:30;;;;;;;;;2.50;2.50;;;29.72;97382.61;;;;118614;1192;25321;-71
2022/08/01 11:23:01;;;;;;;;;4.00;3.00;;;29.87;97374.92;;;;118511;1193;25147;-72
2022/08/01 11:25:36;;;;;;;;;2.50;2.50;;;29.99;97373.73;;;;118611;1192;25712;-69
2022/08/01 11:28:25;;;;;;;;;3.00;3.00;;;30.11;97372.45;;;;118641;1192;25579;-67
2022/08/01 11:31:01;;;;;;;;;2.50;2.50;;;30.21;97372.36;;;;118494;1193;25659;-68
2022/08/01 11:33:42;;;;;;;;;2.25;2.25;;;30.26;97374.54;;;;118618;1192;25525;-67
2022/08/01 11:36:13;;;;;;;;;2.75;2.75;;;30.32;97382.13;;;;118536;1193;24837;-72
2022/08/01 11:38:43;;;;;;;;;2.75;2.75;;;30.36;97381.09;;;;119036;1190;25137;-73
2022/08/01 11:41:16;;;;;;;;;3.00;3.00;;;30.39;97385.05;;;;118919;1191;25330;-73
2022/08/01 11:43:59;;;;;;;;;3.00;2.00;;;30.43;97383.92;;;;119019;1190;25509;-70
2022/08/01 11:47:11;;;;;;;;;3.00;2.00;;;30.52;97388.75;;;;118981;1189;24752;-75
2022/08/01 11:49:47;;;;;;;;;2.50;1.75;;;30.57;97387.75;;;;118969;1190;25053;-76
2022/08/01 11:52:28;;;;;;;;;3.00;3.00;;;30.60;97386.84;;;;118673;1191;25332;-70
2022/08/01 11:55:08;;;;;;;;;2.50;2.50;;;30.65;97387.22;;;;118660;1192;25207;-71
2022/08/01 11:57:38;;;;;;;;;4.50;3.00;;;30.68;97381.98;;;;118949;1190;24857;-71
2022/08/01 12:00:18;;;;;;;;;2.00;2.00;;;30.69;97380.36;;;;118978;1191;25582;-75
2022/08/01 12:02:48;;;;;;;;;3.00;3.00;;;30.75;97378.31;;;;118941;1190;25963;-77
2022/08/01 12:05:20;;;;;;;;;2.25;2.25;;;30.82;97374.19;;;;118619;1190;25285;-77
2022/08/01 12:07:52;;;;;;;;;2.00;2.00;;;30.84;97371.89;;;;118913;1190;25006;-80
2022/08/01 12:10:26;;;;;;;;;3.25;2.50;;;30.87;97377.08;;;;118663;1192;24742;-68
2022/08/01 12:12:59;;;;;;;;;2.75;2.75;;;30.88;97381.11;;;;118940;1189;24935;-68
2022/08/01 12:15:34;;;;;;;;;3.00;3.00;;;30.87;97380.25;;;;118955;1190;25029;-76
2022/08/01 12:18:04;;;;;;;;;5.00;3.75;;;30.88;97384.27;;;;118969;1191;25657;-76
2022/08/01 12:20:35;;;;;;;;;3.25;3.25;;;30.90;97386.84;;;;119007;1190;25785;-76
2022/08/01 12:23:05;;;;;;;;;2.75;2.75;;;30.93;97383.80;;;;119007;1190;25595;-79
2022/08/01 12:25:34;;;;;;;;;2.75;2.75;;;30.94;97382.48;;;;118883;1191;25076;-77
2022/08/01 12:28:09;;;;;;;;;5.00;3.00;;;30.96;97381.23;;;;119032;1189;24753;-78
2022/08/01 12:30:38;;;;;;;;;2.75;2.75;;;31.02;97383.70;;;;118840;1191;25763;-73
2022/08/01 12:33:09;;;;;;;;;2.25;2.25;;;31.06;97383.88;;;;119035;1190;26116;-76
2022/08/01 12:35:38;;;;;;;;;3.75;3.00;;;31.08;97388.21;;;;119054;1190;25222;-77
2022/08/01 12:38:14;;;;;;;;;3.00;3.00;;;31.10;97389.53;;;;118916;1189;25618;-77
2022/08/01 12:40:43;;;;;;;;;3.00;3.00;;;31.11;97390.34;;;;118987;1190;25564;-76
2022/08/01 12:43:17;;;;;;;;;3.00;2.75;;;31.13;97383.29;;;;118961;1191;25389;-70
2022/08/01 12:45:59;;;;;;;;;4.00;3.00;;;31.19;97379.58;;;;119050;1189;25402;-69
2022/08/01 12:48:28;;;;;;;;;3.00;3.00;;;31.24;97384.35;;;;119055;1189;25213;-68
2022/08/01 12:51:00;;;;;;;;;3.75;3.75;;;31.24;97387.16;;;;118691;1189;25380;-70
2022/08/01 12:53:28;;;;;;;;;3.00;3.00;;;31.23;97387.04;;;;118863;1191;24789;-71
2022/08/01 12:56:09;;;;;;;;;2.25;2.25;;;31.23;97379.90;;;;118926;1190;24790;-70
2022/08/01 12:58:39;;;;;;;;;2.00;2.00;;;31.25;97381.77;;;;119021;1190;24702;-69
2022/08/01 13:01:09;;;;;;;;;2.00;2.00;;;31.24;97378.83;;;;119038;1189;25408;-71
2022/08/01 13:03:38;;;;;;;;;2.00;2.00;;;31.23;97383.81;;;;118996;1191;25094;-70
2022/08/01 13:06:14;;;;;;;;;2.00;2.00;;;31.23;97387.58;;;;119038;1189;24856;-73
2022/08/01 13:08:45;;;;;;;;;2.00;1.25;;;31.23;97386.27;;;;119016;1190;25649;-73
2022/08/01 13:11:15;;;;;;;;;2.00;2.00;;;31.19;97389.70;;;;119058;1189;25482;-75
2022/08/01 13:13:48;;;;;;;;;2.00;2.00;;;31.23;97391.77;;;;118994;1189;25276;-73
2022/08/01 13:16:25;;;;;;;;;3.75;3.75;;;31.23;97388.58;;;;119016;1189;25533;-76
2022/08/01 13:19:13;;;;;;;;;3.25;3.00;;;31.25;97390.04;;;;118978;1190;25061;-67
2022/08/01 13:21:54;;;;;;;;;5.50;3.25;;;31.27;97393.78;;;;119102;1190;25599;-66
2022/08/01 13:24:27;;;;;;;;;0.00;0.00;;;31.33;97385.38;;;;119058;1189;25560;-70
2022/08/01 13:27:00;;;;;;;;;2.00;2.00;;;31.36;97391.31;;;;118872;1190;25840;-70
2022/08/01 13:29:34;;;;;;;;;3.50;3.50;;;31.34;97389.13;;;;119075;1190;25301;-74
2022/08/01 13:32:17;;;;;;;;;2.50;2.50;;;31.37;97385.55;;;;118996;1190;25180;-70
2022/08/01 13:35:02;;;;;;;;;2.00;2.00;;;31.46;97389.74;;;;119031;1189;25575;-73
2022/08/01 13:37:29;;;;;;;;;3.25;3.25;;;31.44;97388.05;;;;119017;1188;24754;-70
2022/08/01 13:39:59;;;;;;;;;2.00;2.00;;;31.48;97391.11;;;;119060;1190;26051;-69
2022/08/01 13:42:28;;;;;;;;;2.00;2.00;;;31.46;97389.87;;;;118983;1190;25382;-71
2022/08/01 13:44:56;;;;;;;;;2.00;2.00;;;31.43;97388.42;;;;119059;1189;24897;-73
2022/08/01 13:47:24;;;;;;;;;2.00;2.00;;;31.43;97390.75;;;;119001;1190;24874;-70
2022/08/01 13:50:02;;;;;;;;;2.50;2.00;;;31.41;97389.73;;;;119050;1190;25019;-71
2022/08/01 13:52:31;;;;;;;;;2.00;2.00;;;31.45;97389.77;;;;118991;1190;25094;-72